Airfield :







YOU CAN JOIN US ON...

 
LOGIN :

Register | Disclaimer

   EN    FR    IT 

 









Legend :    VFR   Marginal VFR   IFR   Intensive IFR   Very Intensive IFR
Visi :
Ceiling :
>= 8 km
>= 3000ft
5 to 8 km
1000 to 3000 ft
1500m to 5 km
500 to 1000 ft
800 to 1500m
200 to 500 ft
< 800m
< 200 ft
Symbols :   Thunderstorms  Fog  Heavy snow  Heavy precipitations  Wind > 20 kt






- Airport Elevation : 1808 ft
- IATA code : YWK


CYWK - Wabush

CURRENT METAR :
  • 151200Z 09008KT 1/2SM -FZRA SNPL VV007 M07/M08 A2889 RMK SN8 /S02/ SLP820

EXPIRED METARs :
  • 151135Z 08008G15KT 050V110 1/2SM -FZRA SNPL VV007 M07/M08 A2891 RMK SN8 PRESFR SLP827
  • 151100Z 07011KT 3/4SM -FZRA -PLSN VV010 M07/M08 A2891 RMK SN8 SLP828
  • 151000Z AUTO 08012G22KT 1 1/4SM -SN BKN016 OVC023 M07/M09 A2898 RMK ICG PAST HR PRESFR SLP852
  • 150931Z AUTO 08015G23KT 1 1/4SM -SN BKN012 OVC025 M07/M09 A2902 RMK ICG PAST HR PRESFR SLP864
  • 150928Z AUTO 09015G23KT 1 1/2SM -SN BKN012 OVC025 M07/M09 A2902 RMK ICG INTMT PRESFR SLP866

TAF AMD TAF CYWK
Valid from the 15 at 09:00 until the 15 at 20:00 UTC


150909Z 1509/1520 09012G22KT 3/4SM -SN VV004
TEMPO 1509/1512 6SM -FZRA BR FEW004 OVC020
BECMG 1509/1511 07015G30KT
FM151200 10015G30KT 3/4SM -SN BLSN VV005
BECMG 1513/1515 08010G20KT
BECMG 1516/1518 01008KT RMK FCST BASED ON AUTO OBS. NXT FCST BY 151400Z



MET'MAP, your aeronautical weather chart ! - Copyright ORBIFLY December 2007 - Disclaimer

ORBIFLY MET'MAP TEAM :

Programming & Development : Alexandra Zaïnal
Concept & original design : Baudouin d'Aumeries
Assistance for programming : Marc-Olivier Méhu
Technical & hardware support : Manuel Goepfert

Contact : metmap@orbifly.com




SOURCES & CREDITS :

   NOAA